Time;durP1;ratioP1;P1;durP2;ratioP2;P2;SDS_P1;SDS_P2;PMS_P1;PMS_P2;Temp;Humidity;BMP_temperature;BMP_pressure;BME280_temperature;BME280_humidity;BME280_pressure;Samples;Min_cycle;Max_cycle;Signal;HPM_P1;HPM_P2
2022/10/28 00:00:16;;;;;;;5.00;4.60;;;;;;;12.38;100.00;100935.81;4991466;28;20203;-74
2022/10/28 00:02:42;;;;;;;4.20;3.80;;;;;;;12.38;100.00;100946.19;4993769;28;20223;-74
2022/10/28 00:05:07;;;;;;;4.10;3.70;;;;;;;12.35;100.00;100946.22;4991817;28;20197;-75
2022/10/28 00:07:33;;;;;;;4.30;3.83;;;;;;;12.34;100.00;100945.34;5009545;28;20677;-75
2022/10/28 00:09:58;;;;;;;5.10;3.90;;;;;;;12.31;100.00;100947.97;4995316;28;20559;-77
2022/10/28 00:12:23;;;;;;;5.17;3.67;;;;;;;12.29;100.00;100946.25;4991527;28;20218;-75
2022/10/28 00:14:49;;;;;;;5.40;3.87;;;;;;;12.25;100.00;100941.94;5004583;28;20213;-74
2022/10/28 00:17:14;;;;;;;5.50;4.10;;;;;;;12.21;100.00;100943.72;4993053;28;20201;-75
2022/10/28 00:19:39;;;;;;;4.13;3.73;;;;;;;12.17;100.00;100948.06;4995405;28;20987;-75
2022/10/28 00:22:05;;;;;;;11.17;4.10;;;;;;;12.15;100.00;100941.13;4993304;28;20215;-76
2022/10/28 00:24:30;;;;;;;4.43;4.03;;;;;;;12.14;100.00;100944.59;4989636;28;20203;-76
2022/10/28 00:26:55;;;;;;;4.40;3.90;;;;;;;12.13;100.00;100946.34;4994078;28;20549;-77
2022/10/28 00:29:21;;;;;;;4.27;3.70;;;;;;;12.14;100.00;100945.47;4993845;28;20698;-76
2022/10/28 00:31:46;;;;;;;6.27;4.13;;;;;;;12.15;100.00;100947.19;4989765;28;20187;-75
2022/10/28 00:34:17;;;;;;;4.17;3.77;;;;;;;12.16;100.00;100950.63;4991514;28;20258;-74
2022/10/28 00:36:44;;;;;;;4.70;4.17;;;;;;;12.16;100.00;100948.03;5010527;28;20209;-73
2022/10/28 00:39:13;;;;;;;5.83;4.13;;;;;;;12.18;100.00;100954.94;4994838;28;20202;-75
2022/10/28 00:41:41;;;;;;;4.17;3.77;;;;;;;12.21;100.00;100943.72;4991881;28;20190;-75
2022/10/28 00:44:44;;;;;;;4.60;4.10;;;;;;;12.23;100.00;100951.47;4996052;28;20204;-76
2022/10/28 00:47:16;;;;;;;4.30;3.90;;;;;;;12.22;100.00;100944.56;4994950;28;20177;-74
2022/10/28 00:49:42;;;;;;;5.57;4.20;;;;;;;12.23;100.00;100938.50;4991015;28;20195;-75
2022/10/28 00:52:17;;;;;;;4.70;4.27;;;;;;;12.25;100.00;100937.59;5000062;28;20236;-74
2022/10/28 00:54:43;;;;;;;6.77;3.83;;;;;;;12.26;100.00;100938.47;4988528;28;20213;-76
2022/10/28 00:57:14;;;;;;;6.10;4.20;;;;;;;12.26;100.00;100934.16;4995072;28;20183;-74
2022/10/28 00:59:44;;;;;;;9.53;4.50;;;;;;;12.28;100.00;100929.81;4993228;28;20204;-75
2022/10/28 01:02:10;;;;;;;6.87;4.27;;;;;;;12.30;100.00;100922.03;4991789;28;20191;-75
2022/10/28 01:04:36;;;;;;;6.37;4.13;;;;;;;12.32;100.00;100925.50;4988048;28;20226;-75
2022/10/28 01:07:02;;;;;;;7.03;4.50;;;;;;;12.34;100.00;100927.19;4991723;28;20187;-76
2022/10/28 01:09:27;;;;;;;5.03;3.60;;;;;;;12.37;100.00;100921.09;4992728;28;20174;-75
2022/10/28 01:12:17;;;;;;;4.67;3.70;;;;;;;12.41;100.00;100922.81;4998632;28;20198;-75
2022/10/28 01:14:59;;;;;;;4.37;3.97;;;;;;;12.42;100.00;100918.47;4993439;28;20211;-75
2022/10/28 01:17:36;;;;;;;8.73;4.33;;;;;;;12.46;100.00;100917.59;4994195;28;20286;-75
2022/10/28 01:20:20;;;;;;;5.40;3.80;;;;;;;12.49;100.00;100918.44;4987978;28;20706;-74
2022/10/28 01:23:16;;;;;;;5.90;3.50;;;;;;;12.50;100.00;100925.34;4986333;28;20217;-74
2022/10/28 01:25:44;;;;;;;6.10;4.00;;;;;;;12.51;100.00;100928.81;4985089;28;20186;-74
2022/10/28 01:28:51;;;;;;;7.10;4.10;;;;;;;12.52;100.00;100934.84;4992207;28;20714;-75
2022/10/28 01:32:06;;;;;;;8.90;4.33;;;;;;;12.52;100.00;100933.16;4974863;28;20626;-76
2022/10/28 01:34:40;;;;;;;6.80;3.83;;;;;;;12.52;100.00;100935.75;4980339;28;20315;-75
2022/10/28 01:37:15;;;;;;;21.13;6.33;;;;;;;12.55;100.00;100932.25;4987945;28;20181;-75
2022/10/28 01:39:49;;;;;;;19.10;5.30;;;;;;;12.56;100.00;100941.75;4992688;28;20288;-74
2022/10/28 01:42:24;;;;;;;20.30;5.67;;;;;;;12.56;100.00;100941.75;4992150;28;20578;-76
2022/10/28 01:45:00;;;;;;;25.00;6.20;;;;;;;12.58;100.00;100945.22;4989472;28;20267;-75
2022/10/28 01:47:31;;;;;;;23.13;5.80;;;;;;;12.57;100.00;100941.75;4991688;28;21796;-75
2022/10/28 01:50:04;;;;;;;21.07;6.13;;;;;;;12.59;100.00;100936.56;4993444;28;20217;-74
2022/10/28 01:52:30;;;;;;;23.83;6.13;;;;;;;12.62;100.00;100927.00;5006202;28;20252;-76
2022/10/28 01:55:07;;;;;;;24.90;5.70;;;;;;;12.66;100.00;100930.44;4991245;28;20204;-74
2022/10/28 01:57:35;;;;;;;22.73;5.50;;;;;;;12.69;100.00;100933.00;4994692;28;20187;-74
2022/10/28 02:00:02;;;;;;;20.03;5.33;;;;;;;12.72;100.00;100922.59;4992813;28;20214;-75
2022/10/28 02:02:32;;;;;;;18.00;5.97;;;;;;;12.76;100.00;100926.03;4995587;28;20311;-74
2022/10/28 02:05:42;;;;;;;16.80;5.30;;;;;;;12.78;100.00;100925.13;4992689;28;20214;-75
2022/10/28 02:08:16;;;;;;;18.53;4.70;;;;;;;12.80;100.00;100925.16;4980548;28;20219;-76
2022/10/28 02:11:00;;;;;;;17.77;4.93;;;;;;;12.79;100.00;100920.81;4988970;28;20568;-75
2022/10/28 02:13:52;;;;;;;15.97;5.30;;;;;;;12.80;100.00;100926.00;4989681;28;20304;-76
2022/10/28 02:16:29;;;;;;;14.17;4.53;;;;;;;12.80;100.00;100917.34;4996359;28;20207;-75
2022/10/28 02:19:30;;;;;;;13.23;5.57;;;;;;;12.80;100.00;100922.53;5000148;28;20194;-76
2022/10/28 02:22:19;;;;;;;13.93;4.80;;;;;;;12.78;100.00;100912.16;4978443;28;20666;-76
2022/10/28 02:25:11;;;;;;;5.67;4.00;;;;;;;12.77;100.00;100917.38;4996369;28;20227;-76
2022/10/28 02:28:01;;;;;;;14.30;4.63;;;;;;;12.77;100.00;100923.44;5000274;28;20234;-75
2022/10/28 02:30:49;;;;;;;17.33;5.00;;;;;;;12.77;100.00;100918.25;4994251;28;20480;-76
2022/10/28 02:33:33;;;;;;;12.73;5.27;;;;;;;12.78;100.00;100912.16;4996905;28;22146;-76
2022/10/28 02:36:06;;;;;;;10.03;4.40;;;;;;;12.79;100.00;100911.28;4996147;28;20185;-75
2022/10/28 02:38:36;;;;;;;13.47;4.83;;;;;;;12.78;100.00;100904.38;4992559;28;20211;-76
2022/10/28 02:41:07;;;;;;;10.20;4.60;;;;;;;12.79;100.00;100902.66;4996980;28;20209;-75
2022/10/28 02:43:35;;;;;;;9.17;4.60;;;;;;;12.80;100.00;100888.78;4996857;28;20325;-76
2022/10/28 02:46:03;;;;;;;5.50;3.67;;;;;;;12.80;100.00;100881.00;4992537;28;20195;-75
2022/10/28 02:48:45;;;;;;;6.20;4.30;;;;;;;12.79;100.00;100880.13;5000961;28;20194;-75
2022/10/28 02:51:17;;;;;;;7.20;4.17;;;;;;;12.79;100.00;100866.28;4998189;28;20245;-75
2022/10/28 02:53:48;;;;;;;5.90;4.10;;;;;;;12.78;100.00;100870.59;4994313;28;20205;-75
2022/10/28 02:56:16;;;;;;;6.03;4.10;;;;;;;12.75;100.00;100869.78;4997796;28;20246;-75
2022/10/28 02:58:43;;;;;;;7.17;4.57;;;;;;;12.71;100.00;100873.25;4991333;28;20222;-74
2022/10/28 03:01:08;;;;;;;7.07;4.33;;;;;;;12.65;100.00;100864.66;4986395;28;20205;-76
2022/10/28 03:03:33;;;;;;;6.47;3.67;;;;;;;12.60;100.00;100857.78;4989798;28;20212;-75
2022/10/28 03:05:59;;;;;;;7.20;4.37;;;;;;;12.55;100.00;100868.22;4993469;28;20189;-75
2022/10/28 03:08:24;;;;;;;7.43;4.30;;;;;;;12.52;100.00;100873.44;4990898;28;20187;-75
2022/10/28 03:10:49;;;;;;;6.10;4.03;;;;;;;12.47;100.00;100857.00;4992658;28;20702;-76
2022/10/28 03:13:15;;;;;;;12.07;4.77;;;;;;;12.43;100.00;100860.50;4992804;28;20204;-75
2022/10/28 03:15:40;;;;;;;7.57;4.23;;;;;;;12.40;100.00;100870.94;4996633;28;20603;-76
2022/10/28 03:18:05;;;;;;;8.73;4.43;;;;;;;12.38;100.00;100877.88;4999069;28;20184;-75
2022/10/28 03:20:31;;;;;;;10.00;4.50;;;;;;;12.36;100.00;100883.03;4993832;28;20258;-74
2022/10/28 03:22:56;;;;;;;11.97;4.77;;;;;;;12.37;100.00;100879.59;4996406;28;20208;-75
2022/10/28 03:25:21;;;;;;;9.07;4.37;;;;;;;12.37;100.00;100870.94;4994464;28;20213;-74
2022/10/28 03:27:47;;;;;;;10.73;5.33;;;;;;;12.37;100.00;100876.97;4991707;28;20188;-76
2022/10/28 03:30:13;;;;;;;9.33;4.80;;;;;;;12.39;100.00;100883.03;4994353;28;20184;-74
2022/10/28 03:32:41;;;;;;;7.80;4.73;;;;;;;12.42;100.00;100887.31;4988999;28;20182;-76
2022/10/28 03:35:06;;;;;;;5.50;3.67;;;;;;;12.46;100.00;100882.13;4989524;28;20190;-74
2022/10/28 03:37:32;;;;;;;6.37;3.80;;;;;;;12.50;100.00;100883.81;4987897;28;20273;-73
2022/10/28 03:40:00;;;;;;;5.23;3.90;;;;;;;12.58;100.00;100872.50;4989250;28;20205;-76
2022/10/28 03:42:25;;;;;;;7.50;3.77;;;;;;;12.62;100.00;100869.88;4986720;28;20256;-73
2022/10/28 03:44:50;;;;;;;6.13;4.20;;;;;;;12.66;100.00;100870.72;4986877;28;20661;-75
2022/10/28 03:47:16;;;;;;;7.07;3.93;;;;;;;12.71;100.00;100861.16;4982777;28;20188;-75
2022/10/28 03:49:41;;;;;;;4.30;3.43;;;;;;;12.73;100.00;100849.03;5005016;28;20275;-74
2022/10/28 03:52:06;;;;;;;3.73;3.30;;;;;;;12.76;100.00;100851.59;4993092;28;20225;-76
2022/10/28 03:54:32;;;;;;;9.90;8.40;;;;;;;12.79;100.00;100846.34;4993451;28;20197;-75
2022/10/28 03:56:57;;;;;;;8.43;6.53;;;;;;;12.79;100.00;100838.56;4992713;28;20193;-75
2022/10/28 03:59:22;;;;;;;7.40;6.03;;;;;;;12.77;100.00;100840.34;4996123;28;20219;-75
2022/10/28 04:01:48;;;;;;;7.00;5.43;;;;;;;12.75;100.00;100830.81;4990308;28;20191;-74
2022/10/28 04:04:13;;;;;;;6.63;4.70;;;;;;;12.71;100.00;100827.38;4991774;28;20223;-75
2022/10/28 04:06:38;;;;;;;6.47;4.40;;;;;;;12.68;100.00;100813.59;5008929;28;20186;-74
2022/10/28 04:09:04;;;;;;;8.40;4.57;;;;;;;12.64;100.00;100804.94;4989356;28;20173;-76
2022/10/28 04:11:29;;;;;;;5.83;4.30;;;;;;;12.60;100.00;100790.28;5004463;28;20658;-75
2022/10/28 04:13:57;;;;;;;8.63;6.93;;;;;;;12.57;100.00;100803.28;4993483;28;20220;-75
2022/10/28 04:16:23;;;;;;;11.13;8.47;;;;;;;12.54;100.00;100821.47;4994109;28;20213;-75
2022/10/28 04:18:48;;;;;;;7.63;6.77;;;;;;;12.49;100.00;100819.78;4989234;28;20209;-74
2022/10/28 04:21:13;;;;;;;8.13;6.27;;;;;;;12.45;100.00;100827.59;4992662;28;20178;-75
2022/10/28 04:23:38;;;;;;;8.27;5.37;;;;;;;12.40;100.00;100826.81;4988540;28;20211;-75
2022/10/28 04:26:04;;;;;;;7.33;6.27;;;;;;;12.34;100.00;100820.78;4991377;28;20192;-75
2022/10/28 04:28:30;;;;;;;7.60;5.40;;;;;;;12.29;100.00;100832.91;4985737;28;20190;-77
2022/10/28 04:30:55;;;;;;;7.17;5.10;;;;;;;12.25;100.00;100813.03;4989057;28;20198;-77
2022/10/28 04:33:20;;;;;;;5.83;4.70;;;;;;;12.22;100.00;100802.72;4992641;28;20221;-74
2022/10/28 04:35:46;;;;;;;9.67;4.80;;;;;;;12.22;100.00;100813.09;4991187;28;20181;-75
2022/10/28 04:38:12;;;;;;;7.37;4.67;;;;;;;12.22;100.00;100827.78;4987608;28;20186;-76
2022/10/28 04:40:38;;;;;;;7.70;5.53;;;;;;;12.17;100.00;100823.50;4993701;28;20199;-74
2022/10/28 04:43:03;;;;;;;8.07;4.57;;;;;;;12.12;100.00;100822.66;4988639;28;20308;-75
2022/10/28 04:45:30;;;;;;;5.63;4.40;;;;;;;12.10;100.00;100818.38;4994967;28;20195;-76
2022/10/28 04:47:59;;;;;;;6.63;4.40;;;;;;;12.09;100.00;100822.69;4992949;28;20270;-76
2022/10/28 04:50:26;;;;;;;9.00;4.37;;;;;;;12.07;100.00;100826.16;4989812;28;20187;-76
2022/10/28 04:52:51;;;;;;;6.13;4.33;;;;;;;12.07;100.00;100836.53;4986631;28;20215;-76
2022/10/28 04:55:17;;;;;;;5.97;4.40;;;;;;;12.04;100.00;100832.22;4988328;28;20201;-76
2022/10/28 04:57:43;;;;;;;5.73;4.07;;;;;;;12.01;100.00;100825.31;4986373;28;20189;-76
2022/10/28 05:00:09;;;;;;;5.87;4.97;;;;;;;11.99;100.00;100834.84;4993031;28;20389;-75
2022/10/28 05:02:34;;;;;;;9.93;6.50;;;;;;;11.98;100.00;100847.81;4989851;28;20215;-75
2022/10/28 05:05:02;;;;;;;9.97;6.30;;;;;;;11.95;100.00;100853.00;4989190;28;20618;-76
2022/10/28 05:07:28;;;;;;;7.70;6.00;;;;;;;11.92;100.00;100850.41;4991703;28;20185;-76
2022/10/28 05:09:53;;;;;;;6.60;5.77;;;;;;;11.88;100.00;100834.88;4989461;28;20182;-76
2022/10/28 05:12:18;;;;;;;8.47;5.30;;;;;;;11.87;100.00;100830.56;4982038;28;20256;-76
2022/10/28 05:14:43;;;;;;;6.27;4.87;;;;;;;11.86;100.00;100840.94;4982242;28;20212;-77
2022/10/28 05:17:10;;;;;;;6.87;5.37;;;;;;;11.87;100.00;100851.28;4987606;28;20185;-76
2022/10/28 05:19:35;;;;;;;10.13;5.20;;;;;;;11.84;100.00;100847.88;4982027;28;20242;-77
2022/10/28 05:22:01;;;;;;;5.33;4.83;;;;;;;11.82;100.00;100847.88;4978407;28;20292;-76
2022/10/28 05:24:26;;;;;;;8.77;5.60;;;;;;;11.79;100.00;100829.75;4982818;28;20280;-76
2022/10/28 05:26:51;;;;;;;7.60;4.63;;;;;;;11.78;100.00;100825.44;4984546;28;20281;-78
2022/10/28 05:29:18;;;;;;;7.43;4.80;;;;;;;11.77;100.00;100828.03;4998147;28;20600;-77
2022/10/28 05:31:44;;;;;;;6.20;4.73;;;;;;;11.76;100.00;100829.75;4996646;28;20221;-76
2022/10/28 05:34:09;;;;;;;4.60;4.13;;;;;;;11.75;100.00;100835.81;4980479;28;20206;-76
2022/10/28 05:36:35;;;;;;;7.97;5.20;;;;;;;11.72;100.00;100854.84;4981953;28;20540;-77
2022/10/28 05:39:00;;;;;;;6.17;5.03;;;;;;;11.69;100.00;100846.22;4985643;28;20240;-76
2022/10/28 05:41:26;;;;;;;7.90;5.50;;;;;;;11.66;100.00;100851.41;4988539;28;20185;-75
2022/10/28 05:43:51;;;;;;;11.60;8.50;;;;;;;11.62;100.00;100852.28;4989042;28;20211;-76
2022/10/28 05:46:16;;;;;;;11.63;9.07;;;;;;;11.58;100.00;100844.53;4986379;28;20637;-74
2022/10/28 05:48:41;;;;;;;12.90;10.47;;;;;;;11.54;100.00;100835.06;4986422;28;20238;-75
2022/10/28 05:51:07;;;;;;;11.30;9.03;;;;;;;11.52;100.00;100823.81;4989279;28;20213;-76
2022/10/28 05:53:32;;;;;;;8.47;7.03;;;;;;;11.52;100.00;100822.94;4987435;28;20407;-74
2022/10/28 05:55:57;;;;;;;11.17;6.53;;;;;;;11.51;100.00;100824.69;4992760;28;20650;-76
2022/10/28 05:58:23;;;;;;;7.47;6.20;;;;;;;11.54;100.00;100823.81;4992682;28;20543;-76
2022/10/28 06:00:48;;;;;;;6.93;5.57;;;;;;;11.54;100.00;100819.50;4991681;28;20233;-76
2022/10/28 06:03:13;;;;;;;5.90;4.70;;;;;;;11.53;100.00;100822.09;4991486;28;20700;-74
2022/10/28 06:05:42;;;;;;;8.43;4.73;;;;;;;11.53;100.00;100830.75;4990975;28;20232;-75
2022/10/28 06:08:10;;;;;;;6.77;5.07;;;;;;;11.50;100.00;100835.06;4990824;28;20857;-75
2022/10/28 06:10:35;;;;;;;5.43;4.77;;;;;;;11.45;100.00;100832.47;5001268;28;20196;-77
2022/10/28 06:13:00;;;;;;;5.80;5.20;;;;;;;11.42;100.00;100823.00;4982130;28;20214;-76
2022/10/28 06:15:26;;;;;;;6.00;4.77;;;;;;;11.40;100.00;100827.31;4981989;28;20264;-75
2022/10/28 06:17:51;;;;;;;6.97;4.73;;;;;;;11.38;100.00;100828.22;4988246;28;20196;-77
2022/10/28 06:20:18;;;;;;;8.17;5.10;;;;;;;11.39;100.00;100835.13;4989830;28;20202;-77
2022/10/28 06:22:48;;;;;;;7.27;4.97;;;;;;;11.40;100.00;100840.28;4994445;28;20243;-77
2022/10/28 06:25:13;;;;;;;7.07;4.97;;;;;;;11.41;100.00;100843.75;4995446;28;20552;-76
2022/10/28 06:27:38;;;;;;;7.57;4.77;;;;;;;11.43;100.00;100839.41;4988368;28;20189;-77
2022/10/28 06:30:04;;;;;;;6.90;5.23;;;;;;;11.50;100.00;100838.53;4987676;28;20187;-78
2022/10/28 06:32:30;;;;;;;6.67;5.07;;;;;;;11.59;100.00;100843.66;4989158;28;20188;-76
2022/10/28 06:34:55;;;;;;;5.47;4.70;;;;;;;11.67;100.00;100846.22;4988153;28;20175;-76
2022/10/28 06:37:20;;;;;;;7.53;5.00;;;;;;;11.73;100.00;100843.59;4983310;28;20237;-76
2022/10/28 06:39:50;;;;;;;6.10;5.17;;;;;;;11.78;100.00;100848.75;4988240;28;20304;-76
2022/10/28 06:42:15;;;;;;;9.27;7.30;;;;;;;11.83;100.00;100859.09;4987047;28;20201;-76
2022/10/28 06:44:40;;;;;;;9.27;7.67;;;;;;;11.90;100.00;100858.22;4986295;28;20222;-76
2022/10/28 06:47:06;;;;;;;7.63;6.47;;;;;;;11.96;100.00;100868.53;4983104;28;20191;-77
2022/10/28 06:49:31;;;;;;;7.17;5.47;;;;;;;12.01;100.00;100851.25;4989504;28;20263;-76
2022/10/28 06:51:56;;;;;;;7.70;5.63;;;;;;;12.07;100.00;100860.75;4985851;28;20286;-74
2022/10/28 06:54:22;;;;;;;7.57;5.63;;;;;;;12.11;100.00;100877.16;4985027;28;20664;-75
2022/10/28 06:56:47;;;;;;;5.37;4.60;;;;;;;12.15;100.00;100882.34;4984401;28;20291;-74
2022/10/28 06:59:12;;;;;;;5.90;4.43;;;;;;;12.19;100.00;100884.00;4992186;28;20212;-73
2022/10/28 07:01:38;;;;;;;6.13;4.30;;;;;;;12.26;100.00;100887.44;4979559;28;20226;-75
2022/10/28 07:04:03;;;;;;;5.40;4.13;;;;;;;12.32;100.00;100890.00;4983036;28;20218;-74
2022/10/28 07:06:29;;;;;;;5.80;3.43;;;;;;;12.37;100.00;100887.38;4984701;28;20259;-75
2022/10/28 07:08:54;;;;;;;4.10;3.37;;;;;;;12.41;100.00;100885.59;4985246;28;20197;-75
2022/10/28 07:11:19;;;;;;;4.50;3.53;;;;;;;12.45;100.00;100888.19;4986543;28;20570;-75
2022/10/28 07:13:45;;;;;;;4.33;3.47;;;;;;;12.49;100.00;100895.06;4986388;28;20734;-75
2022/10/28 07:16:10;;;;;;;4.03;3.50;;;;;;;12.53;100.00;100887.25;4985351;28;20566;-76
2022/10/28 07:18:35;;;;;;;4.47;3.57;;;;;;;12.58;100.00;100893.28;4983845;28;20213;-75
2022/10/28 07:21:01;;;;;;;4.93;4.03;;;;;;;12.60;100.00;100889.78;4987495;28;20240;-75
2022/10/28 07:23:27;;;;;;;4.50;3.20;;;;;;;12.66;100.00;100896.69;4982551;28;21115;-75
2022/10/28 07:25:54;;;;;;;5.93;3.70;;;;;;;12.71;100.00;100894.03;4985980;28;20191;-77
2022/10/28 07:28:21;;;;;;;5.23;3.60;;;;;;;12.74;100.00;100888.81;4984492;28;20213;-76
2022/10/28 07:30:47;;;;;;;4.87;3.77;;;;;;;12.77;100.00;100888.81;4981323;28;20187;-75
2022/10/28 07:33:12;;;;;;;7.17;4.10;;;;;;;12.78;100.00;100881.00;4983699;28;20741;-74
2022/10/28 07:35:38;;;;;;;5.23;4.03;;;;;;;12.81;100.00;100886.16;4987807;28;20189;-75
2022/10/28 07:38:03;;;;;;;6.80;3.73;;;;;;;12.86;100.00;100891.31;4985018;28;20215;-74
2022/10/28 07:40:28;;;;;;;5.20;3.73;;;;;;;12.91;100.00;100894.75;4977230;28;20224;-76
2022/10/28 07:42:54;;;;;;;6.40;3.93;;;;;;;12.95;100.00;100888.66;4977327;28;20209;-77
2022/10/28 07:45:19;;;;;;;4.70;3.87;;;;;;;12.98;100.00;100895.53;4984274;28;20814;-76
2022/10/28 07:47:45;;;;;;;6.27;4.20;;;;;;;13.03;100.00;100887.69;4979485;28;20250;-76
2022/10/28 07:50:11;;;;;;;3.83;3.17;;;;;;;13.07;100.00;100892.88;4984935;28;20183;-73
2022/10/28 07:52:37;;;;;;;8.03;3.93;;;;;;;13.13;100.00;100893.69;4979966;28;20187;-75
2022/10/28 07:55:04;;;;;;;5.97;3.67;;;;;;;13.18;100.00;100886.69;4980601;28;21993;-74
2022/10/28 07:57:29;;;;;;;7.83;4.33;;;;;;;13.24;100.00;100884.03;4982607;28;20268;-76
2022/10/28 07:59:55;;;;;;;5.27;3.77;;;;;;;13.28;100.00;100898.72;4980276;28;20216;-76
2022/10/28 08:02:22;;;;;;;5.27;3.53;;;;;;;13.32;100.00;100903.00;4983819;28;20199;-73
2022/10/28 08:04:47;;;;;;;5.87;4.03;;;;;;;13.38;100.00;100913.38;4983157;28;20211;-74
2022/10/28 08:07:13;;;;;;;5.93;4.60;;;;;;;13.43;100.00;100922.88;4987946;28;20562;-75
2022/10/28 08:09:39;;;;;;;6.33;4.10;;;;;;;13.49;100.00;100915.84;4982420;28;20825;-76
2022/10/28 08:12:06;;;;;;;5.63;3.97;;;;;;;13.58;100.00;100909.69;4983750;28;20187;-75
2022/10/28 08:14:31;;;;;;;7.27;3.77;;;;;;;13.67;100.00;100909.59;4987255;28;20213;-75
2022/10/28 08:16:57;;;;;;;4.70;3.67;;;;;;;13.78;100.00;100906.00;4983967;28;20193;-75
2022/10/28 08:19:22;;;;;;;4.77;3.90;;;;;;;13.89;100.00;100893.72;4982911;28;20292;-76
2022/10/28 08:21:47;;;;;;;5.03;3.83;;;;;;;14.03;100.00;100904.78;4980664;28;20277;-75
2022/10/28 08:24:13;;;;;;;4.90;3.70;;;;;;;14.20;100.00;100895.06;4986834;28;20213;-76
2022/10/28 08:26:39;;;;;;;4.30;3.60;;;;;;;14.34;100.00;100890.50;4983384;28;20189;-77
2022/10/28 08:29:04;;;;;;;5.10;3.60;;;;;;;14.44;100.00;100892.06;4986014;28;20239;-75
2022/10/28 08:31:32;;;;;;;4.90;3.33;;;;;;;14.57;100.00;100890.16;4990015;28;20649;-77
2022/10/28 08:33:57;;;;;;;5.17;3.60;;;;;;;14.70;100.00;100893.44;4981149;28;20572;-77
2022/10/28 08:36:22;;;;;;;4.83;3.43;;;;;;;14.84;100.00;100884.50;4982692;28;20189;-77
2022/10/28 08:38:48;;;;;;;6.40;3.50;;;;;;;14.98;100.00;100886.91;4982447;28;20300;-76
2022/10/28 08:41:28;;;;;;;4.60;3.47;;;;;;;15.09;100.00;100895.38;4983197;28;20180;-77
2022/10/28 08:44:22;;;;;;;5.90;3.60;;;;;;;15.27;100.00;100898.53;4983061;28;20225;-76
2022/10/28 08:46:53;;;;;;;5.47;4.07;;;;;;;15.39;100.00;100895.69;4984599;28;20185;-76
2022/10/28 08:49:22;;;;;;;4.40;3.53;;;;;;;15.48;100.00;100892.03;4985516;28;20671;-76
2022/10/28 08:51:59;;;;;;;7.87;4.23;;;;;;;15.52;100.00;100891.09;4988992;28;20212;-77
2022/10/28 08:54:49;;;;;;;5.67;3.70;;;;;;;15.55;100.00;100896.28;4998258;28;20259;-76
2022/10/28 08:57:24;;;;;;;8.47;4.47;;;;;;;15.60;100.00;100896.16;4985695;28;20565;-77
2022/10/28 08:59:52;;;;;;;5.80;3.43;;;;;;;15.63;100.00;100885.69;4985149;28;20279;-76
2022/10/28 09:02:23;;;;;;;5.13;3.47;;;;;;;15.68;100.00;100879.47;4981409;28;20178;-74
2022/10/28 09:05:22;;;;;;;4.77;3.20;;;;;;;15.77;100.00;100874.94;4996606;28;20282;-72
2022/10/28 09:07:49;;;;;;;5.40;3.77;;;;;;;15.87;100.00;100875.63;4980359;28;20204;-75
2022/10/28 09:10:16;;;;;;;7.33;3.93;;;;;;;15.88;100.00;100877.34;4985060;28;20240;-75
2022/10/28 09:12:53;;;;;;;4.90;3.90;;;;;;;15.94;100.00;100874.63;4980810;28;20293;-75
2022/10/28 09:15:45;;;;;;;4.90;3.37;;;;;;;15.98;100.00;100876.25;4983718;28;20197;-74
2022/10/28 09:18:28;;;;;;;5.07;3.30;;;;;;;16.05;100.00;100871.75;4982968;28;20195;-74
2022/10/28 09:20:56;;;;;;;6.97;3.57;;;;;;;16.11;100.00;100863.78;4988934;28;20755;-76
2022/10/28 09:23:38;;;;;;;4.17;3.47;;;;;;;16.20;100.00;100873.19;4983320;28;21434;-75
2022/10/28 09:26:09;;;;;;;5.33;3.23;;;;;;;16.25;100.00;100863.50;4985639;28;20199;-76
2022/10/28 09:28:58;;;;;;;6.43;3.40;;;;;;;16.29;100.00;100879.03;4998106;28;20623;-73
2022/10/28 09:31:41;;;;;;;8.63;3.90;;;;;;;16.36;100.00;100895.44;5000267;28;20180;-75
2022/10/28 09:34:28;;;;;;;4.80;3.70;;;;;;;16.55;100.00;100900.22;4990535;28;20290;-75
2022/10/28 09:36:59;;;;;;;6.63;3.80;;;;;;;16.75;100.00;100900.56;5000418;28;20191;-76
2022/10/28 09:39:36;;;;;;;6.03;3.80;;;;;;;16.95;100.00;100908.84;4998980;28;20217;-76
2022/10/28 09:42:03;;;;;;;5.50;4.20;;;;;;;17.14;100.00;100906.63;4996039;28;20238;-76
2022/10/28 09:44:44;;;;;;;5.07;3.90;;;;;;;17.35;100.00;100906.03;4995941;28;20238;-75
2022/10/28 09:47:21;;;;;;;5.30;3.47;;;;;;;17.58;100.00;100899.31;4996592;28;20268;-76
2022/10/28 09:49:50;;;;;;;5.73;3.00;;;;;;;17.75;100.00;100896.19;4992591;28;20656;-76
2022/10/28 09:52:22;;;;;;;4.37;3.17;;;;;;;17.90;100.00;100901.88;4990145;28;20188;-77
2022/10/28 09:54:51;;;;;;;6.07;3.03;;;;;;;17.90;100.00;100897.53;4996220;28;20725;-76
2022/10/28 09:57:16;;;;;;;3.50;2.50;;;;;;;17.85;100.00;100893.34;4992681;28;20185;-76
2022/10/28 09:59:42;;;;;;;3.90;3.00;;;;;;;17.74;100.00;100894.47;4992580;28;20218;-76
2022/10/28 10:02:26;;;;;;;3.60;3.30;;;;;;;17.73;100.00;100886.69;4991951;28;20493;-76
2022/10/28 10:04:53;;;;;;;5.13;3.40;;;;;;;17.85;100.00;100886.31;4991488;28;20213;-76
2022/10/28 10:07:41;;;;;;;5.07;3.50;;;;;;;18.08;100.00;100893.50;4992458;28;20188;-75
2022/10/28 10:10:22;;;;;;;4.53;3.20;;;;;;;18.36;100.00;100894.44;4988835;28;20287;-76
2022/10/28 10:12:49;;;;;;;4.13;3.10;;;;;;;18.58;100.00;100891.97;4984695;28;20200;-74
2022/10/28 10:15:26;;;;;;;3.77;2.93;;;;;;;18.73;100.00;100888.84;4991158;28;20303;-76
2022/10/28 10:17:55;;;;;;;5.13;3.60;;;;;;;18.70;100.00;100895.94;4987984;28;20193;-76
2022/10/28 10:20:21;;;;;;;5.33;3.07;;;;;;;18.66;100.00;100894.34;4992440;28;20320;-74
2022/10/28 10:22:48;;;;;;;5.97;3.40;;;;;;;18.66;100.00;100891.72;4991725;28;20279;-75
2022/10/28 10:25:16;;;;;;;5.30;3.50;;;;;;;18.66;100.00;100881.22;4986404;28;20200;-75
2022/10/28 10:27:41;;;;;;;5.30;3.10;;;;;;;18.67;100.00;100882.94;4997296;28;20223;-75
2022/10/28 10:30:16;;;;;;;4.73;3.20;;;;;;;18.71;100.00;100884.53;4989689;28;21548;-76
2022/10/28 10:32:46;;;;;;;4.70;2.77;;;;;;;18.73;100.00;100887.97;4990678;28;20188;-76
2022/10/28 10:35:12;;;;;;;4.93;3.13;;;;;;;18.72;100.00;100887.13;4989723;28;20199;-75
2022/10/28 10:37:42;;;;;;;6.40;3.17;;;;;;;18.72;100.00;100891.50;4987271;28;20200;-74
2022/10/28 10:40:32;;;;;;;6.13;3.40;;;;;;;18.68;100.00;100892.53;4989211;28;20268;-76
2022/10/28 10:43:16;;;;;;;5.17;3.33;;;;;;;18.67;100.00;100889.03;4984508;28;20776;-75
2022/10/28 10:45:59;;;;;;;6.57;3.23;;;;;;;18.69;100.00;100881.97;4985672;28;20189;-75
2022/10/28 10:48:25;;;;;;;5.50;2.90;;;;;;;18.81;100.00;100880.72;4982734;28;20196;-75
2022/10/28 10:50:51;;;;;;;5.03;3.20;;;;;;;18.86;100.00;100873.53;4985316;28;20207;-75
2022/10/28 10:53:19;;;;;;;7.40;2.93;;;;;;;18.83;100.00;100868.38;4986912;28;20665;-76
2022/10/28 10:56:09;;;;;;;4.13;2.80;;;;;;;18.76;100.00;100869.50;4988696;28;20269;-75
2022/10/28 10:58:39;;;;;;;3.97;3.23;;;;;;;18.69;100.00;100873.22;4982569;28;20939;-75
2022/10/28 11:01:06;;;;;;;7.33;3.27;;;;;;;18.72;100.00;100870.53;4986783;28;20185;-75
2022/10/28 11:03:49;;;;;;;4.17;3.03;;;;;;;18.77;100.00;100868.59;4986054;28;20216;-76
2022/10/28 11:06:22;;;;;;;5.47;3.17;;;;;;;18.82;100.00;100865.81;4983550;28;20276;-75
2022/10/28 11:08:48;;;;;;;3.97;2.57;;;;;;;18.87;100.00;100856.03;4986467;28;20192;-75
2022/10/28 11:11:21;;;;;;;4.47;3.10;;;;;;;18.96;100.00;100854.91;4989006;28;20197;-75
2022/10/28 11:14:00;;;;;;;6.47;3.63;;;;;;;19.01;100.00;100853.81;4998003;28;20931;-76
2022/10/28 11:16:26;;;;;;;8.43;3.67;;;;;;;19.07;100.00;100849.25;4986754;28;20208;-75
2022/10/28 11:18:52;;;;;;;4.77;2.97;;;;;;;19.21;100.00;100849.59;4986405;28;20704;-78
2022/10/28 11:21:36;;;;;;;6.57;3.03;;;;;;;19.37;100.00;100842.06;4987720;28;20196;-76
2022/10/28 11:24:04;;;;;;;7.70;4.07;;;;;;;19.44;100.00;100842.69;4985963;28;20276;-76
2022/10/28 11:26:36;;;;;;;5.03;3.10;;;;;;;19.52;100.00;100835.34;4986486;28;20256;-75
2022/10/28 11:29:13;;;;;;;6.73;3.30;;;;;;;19.62;100.00;100831.50;4985258;28;20943;-76